createdAt,value
2022-09-14T00:04:13.485Z,150140.28
2022-09-14T00:09:21.109Z,150141.56
2022-09-14T00:14:28.221Z,150153.22
2022-09-14T00:19:32.552Z,150176.47
2022-09-14T00:24:37.613Z,150192.03
2022-09-14T00:29:43.477Z,150151.91
2022-09-14T00:34:47.966Z,150153.22
2022-09-14T00:39:52.893Z,150123.44
2022-09-14T00:45:06.105Z,150117.00
2022-09-14T00:50:12.500Z,150127.34
2022-09-14T00:55:20.794Z,150122.16
2022-09-14T01:00:29.549Z,150105.38
2022-09-14T01:05:49.677Z,150096.31
2022-09-14T01:11:18.537Z,150079.47
2022-09-14T01:16:33.020Z,150089.84
2022-09-14T01:21:40.099Z,150113.09
2022-09-14T01:27:26.934Z,150062.69
2022-09-14T01:32:37.611Z,150044.53
2022-09-14T01:37:49.242Z,150039.38
2022-09-14T01:42:56.933Z,150029.03
2022-09-14T01:48:06.554Z,150079.47
2022-09-14T01:53:15.430Z,150031.63
2022-09-14T01:58:28.570Z,150052.34
2022-09-14T02:03:46.009Z,150051.03
2022-09-14T02:08:51.919Z,150010.94
2022-09-14T02:13:56.551Z,149998.00
2022-09-14T02:19:02.921Z,149974.75
2022-09-14T02:24:08.470Z,149946.28
2022-09-14T02:29:13.265Z,149910.13
2022-09-14T02:34:35.595Z,149897.16
2022-09-14T02:39:48.252Z,149917.84
2022-09-14T02:45:02.734Z,149855.84
2022-09-14T02:50:20.715Z,149854.56
2022-09-14T02:55:29.812Z,149840.31
2022-09-14T03:00:36.942Z,149841.59
2022-09-14T03:05:43.469Z,149864.88
2022-09-14T03:10:49.025Z,149822.25
2022-09-14T03:15:54.207Z,149809.28
2022-09-14T03:21:07.473Z,149833.88
2022-09-14T03:26:13.988Z,149801.56
2022-09-14T03:31:19.327Z,149775.69
2022-09-14T03:36:26.972Z,149783.47
2022-09-14T03:41:31.314Z,149806.72
2022-09-14T03:46:36.500Z,149806.72
2022-09-14T03:51:42.769Z,149806.72
2022-09-14T03:56:48.097Z,149769.28
2022-09-14T04:01:52.772Z,149788.63
2022-09-14T04:06:58.889Z,149806.72
2022-09-14T04:12:03.915Z,149793.81
2022-09-14T04:17:09.235Z,149740.78
2022-09-14T04:22:16.256Z,149773.13
2022-09-14T04:27:20.446Z,149760.22
2022-09-14T04:32:24.762Z,149743.34
2022-09-14T04:37:33.436Z,149747.25
2022-09-14T04:42:38.370Z,149749.84
2022-09-14T04:47:42.621Z,149767.97
2022-09-14T04:52:51.282Z,149780.91
2022-09-14T04:57:56.240Z,149791.22
2022-09-14T05:03:01.467Z,149775.69
2022-09-14T05:08:07.479Z,149771.84
2022-09-14T05:13:11.881Z,149725.31
2022-09-14T05:18:16.307Z,149776.97
2022-09-14T05:23:22.597Z,149784.75
2022-09-14T05:28:27.887Z,149845.50
2022-09-14T05:33:32.163Z,149939.81
2022-09-14T05:38:40.576Z,150013.50
2022-09-14T05:43:45.660Z,150017.41
2022-09-14T05:48:52.178Z,150039.38
2022-09-14T05:54:00.375Z,150076.91
2022-09-14T05:59:05.184Z,150166.13
2022-09-14T06:04:12.878Z,150238.59
2022-09-14T06:09:19.128Z,150273.50
2022-09-14T06:14:23.223Z,150336.97
2022-09-14T06:19:28.114Z,150465.09
2022-09-14T06:24:34.124Z,150424.97
2022-09-14T06:29:38.742Z,150404.25
2022-09-14T06:34:42.902Z,150452.19
2022-09-14T06:39:49.317Z,150665.84
2022-09-14T06:44:53.802Z,150598.50
2022-09-14T06:49:59.352Z,150567.38
2022-09-14T06:55:07.311Z,150681.41
2022-09-14T07:00:12.921Z,150711.19
2022-09-14T07:05:20.715Z,150808.34
2022-09-14T07:10:28.814Z,150829.13
2022-09-14T07:15:33.635Z,151083.28
2022-09-14T07:20:37.862Z,150914.69
2022-09-14T07:25:43.988Z,151027.44
2022-09-14T07:30:48.947Z,151101.41
2022-09-14T07:35:54.168Z,151135.13
2022-09-14T07:41:01.930Z,151091.03
2022-09-14T07:46:07.611Z,151039.16
2022-09-14T07:51:13.260Z,150983.38
2022-09-14T07:56:19.167Z,150877.13
2022-09-14T08:01:23.757Z,151049.53
2022-09-14T08:06:29.503Z,151161.09
2022-09-14T08:11:36.071Z,151132.53
2022-09-14T08:16:42.108Z,151107.91
2022-09-14T08:21:48.280Z,151228.53
2022-09-14T08:26:55.449Z,151198.69
2022-09-14T08:32:00.004Z,151166.25
2022-09-14T08:37:04.579Z,150941.91
2022-09-14T08:42:17.981Z,151101.41
2022-09-14T08:47:28.638Z,151367.44
2022-09-14T08:52:36.851Z,151454.41
2022-09-14T08:57:47.075Z,151290.88
2022-09-14T09:03:26.574Z,151375.19
2022-09-14T09:08:39.849Z,151579.06
2022-09-14T09:13:48.837Z,151770.09
2022-09-14T09:18:59.187Z,151532.34
2022-09-14T09:24:17.681Z,151309.03
2022-09-14T09:29:23.689Z,151333.72
2022-09-14T09:34:46.608Z,151207.78
2022-09-14T09:40:33.909Z,151201.28
2022-09-14T09:45:59.994Z,151225.97
2022-09-14T09:51:12.693Z,151449.19
2022-09-14T09:56:24.987Z,151684.28
2022-09-14T10:01:33.465Z,151631.03
2022-09-14T10:06:46.175Z,151608.94
2022-09-14T10:11:59.804Z,151638.84
2022-09-14T10:17:19.916Z,151519.38
2022-09-14T10:22:29.871Z,151542.72
2022-09-14T10:27:39.918Z,151255.75
2022-09-14T10:32:52.865Z,151220.75
2022-09-14T10:38:17.291Z,151109.22
2022-09-14T10:43:36.895Z,151032.66
2022-09-14T10:48:59.876Z,151006.75
2022-09-14T10:54:18.756Z,150900.44
2022-09-14T10:59:34.290Z,150797.97
2022-09-14T11:04:57.406Z,150851.16
2022-09-14T11:10:09.439Z,150795.41
2022-09-14T11:15:26.107Z,150751.34
2022-09-14T11:20:42.560Z,150724.16
2022-09-14T11:25:54.293Z,150642.53
2022-09-14T11:31:05.007Z,150559.59
2022-09-14T11:36:20.197Z,150507.84
2022-09-14T11:41:30.830Z,150444.41
2022-09-14T11:46:38.323Z,150393.91
2022-09-14T11:51:48.864Z,150331.81
2022-09-14T11:56:58.844Z,150224.38
2022-09-14T12:02:41.627Z,150207.53
2022-09-14T12:08:04.616Z,150140.28
2022-09-14T12:13:21.998Z,150098.91
2022-09-14T12:18:29.481Z,150067.84
2022-09-14T12:23:44.810Z,150027.75
2022-09-14T12:28:51.679Z,150014.78
2022-09-14T12:34:30.676Z,149966.97
2022-09-14T12:39:38.443Z,149963.13
2022-09-14T12:44:44.449Z,149963.13
2022-09-14T12:49:50.106Z,149965.69
2022-09-14T12:55:12.779Z,149987.66
2022-09-14T13:00:20.359Z,149977.31
2022-09-14T13:05:27.641Z,149969.56
2022-09-14T13:10:36.704Z,150001.88
2022-09-14T13:15:51.915Z,149948.84
2022-09-14T13:20:58.073Z,150030.34
2022-09-14T13:26:11.619Z,149959.22
2022-09-14T13:31:21.683Z,149988.94
2022-09-14T13:36:42.106Z,150060.13
2022-09-14T13:41:47.944Z,150096.31
2022-09-14T13:46:53.487Z,150079.47
2022-09-14T13:52:20.392Z,150067.84
2022-09-14T13:57:27.027Z,150107.94
2022-09-14T14:02:34.348Z,150251.50
2022-09-14T14:07:39.296Z,150577.72
2022-09-14T14:12:50.109Z,150452.19
2022-09-14T14:17:55.915Z,150388.75
2022-09-14T14:23:04.366Z,150340.84
2022-09-14T14:28:18.069Z,150282.56
2022-09-14T14:33:23.578Z,150270.94
2022-09-14T14:38:28.561Z,150292.94
2022-09-14T14:43:34.934Z,150308.44
2022-09-14T14:48:39.291Z,150250.22
2022-09-14T14:53:44.014Z,150243.75
2022-09-14T14:58:50.584Z,150234.72
2022-09-14T15:03:55.010Z,150210.09
2022-09-14T15:08:59.388Z,150277.41
2022-09-14T15:14:05.760Z,150313.63
2022-09-14T15:19:11.283Z,150295.50
2022-09-14T15:24:15.476Z,150303.28
2022-09-14T15:29:21.359Z,150255.38
2022-09-14T15:34:26.457Z,150272.22
2022-09-14T15:39:33.484Z,150318.78
2022-09-14T15:44:39.753Z,150309.72
2022-09-14T15:49:44.804Z,150347.31
2022-09-14T15:54:49.626Z,150248.94
2022-09-14T15:59:56.736Z,150239.88
2022-09-14T16:05:00.872Z,150245.06
2022-09-14T16:10:05.464Z,150220.47
2022-09-14T16:15:12.683Z,150232.09
2022-09-14T16:20:17.647Z,150243.75
2022-09-14T16:25:21.996Z,150155.78
2022-09-14T16:30:28.164Z,150127.34
2022-09-14T16:35:32.497Z,150110.53
2022-09-14T16:40:41.029Z,150111.81
2022-09-14T16:45:50.590Z,150122.16
2022-09-14T16:50:54.806Z,150106.66
2022-09-14T16:56:04.830Z,150102.75
2022-09-14T17:01:13.050Z,150066.56
2022-09-14T17:06:19.939Z,150062.69
2022-09-14T17:11:24.396Z,150039.38
2022-09-14T17:16:31.033Z,149998.00
2022-09-14T17:21:39.402Z,149990.25
2022-09-14T17:26:44.583Z,150000.59
2022-09-14T17:31:51.138Z,149996.72
2022-09-14T17:36:55.516Z,150004.44
2022-09-14T17:41:59.920Z,149935.94
2022-09-14T17:47:06.566Z,149889.44
2022-09-14T17:52:11.038Z,149868.75
2022-09-14T17:57:15.831Z,149842.88
2022-09-14T18:02:22.165Z,149857.13
2022-09-14T18:07:27.348Z,149871.31
2022-09-14T18:12:36.647Z,149832.59
2022-09-14T18:17:43.942Z,149832.59
2022-09-14T18:22:48.598Z,149866.19
2022-09-14T18:27:52.683Z,149873.91
2022-09-14T18:32:58.684Z,149836.44
2022-09-14T18:38:03.098Z,149867.47
2022-09-14T18:43:07.628Z,149849.34
2022-09-14T18:48:13.787Z,149872.59
2022-09-14T18:53:17.921Z,149863.56
2022-09-14T18:58:22.164Z,149897.16
2022-09-14T19:03:29.615Z,149867.47
2022-09-14T19:08:33.618Z,149855.84
2022-09-14T19:13:38.324Z,149863.56
2022-09-14T19:18:45.946Z,149864.88
2022-09-14T19:23:51.579Z,149873.91
2022-09-14T19:28:56.815Z,149876.53
2022-09-14T19:34:03.854Z,149892.00
2022-09-14T19:39:08.535Z,149941.16
2022-09-14T19:44:13.395Z,149957.91
2022-09-14T19:49:22.565Z,149937.22
2022-09-14T19:54:27.074Z,149974.75
2022-09-14T19:59:31.696Z,149932.09
2022-09-14T20:04:37.563Z,149911.41
2022-09-14T20:09:41.783Z,149904.91
2022-09-14T20:14:46.695Z,149954.06
2022-09-14T20:19:52.869Z,149947.56
2022-09-14T20:24:57.477Z,149932.09
2022-09-14T20:30:01.981Z,149952.78
2022-09-14T20:35:10.007Z,149933.38
2022-09-14T20:40:14.920Z,149941.16
2022-09-14T20:45:19.525Z,149935.94
2022-09-14T20:50:25.684Z,149946.28
2022-09-14T20:55:30.555Z,149894.59
2022-09-14T21:00:34.921Z,149879.09
2022-09-14T21:05:41.906Z,149899.78
2022-09-14T21:10:46.907Z,149901.06
2022-09-14T21:15:51.733Z,149894.59
2022-09-14T21:21:01.112Z,149879.09
2022-09-14T21:26:09.163Z,149930.78
2022-09-14T21:31:15.422Z,149929.47
2022-09-14T21:36:23.872Z,149912.69
2022-09-14T21:41:30.466Z,149930.78
2022-09-14T21:46:35.530Z,149929.47
2022-09-14T21:51:41.917Z,149952.78
2022-09-14T21:56:47.864Z,149950.16
2022-09-14T22:01:52.962Z,149954.06
2022-09-14T22:06:59.767Z,149945.00
2022-09-14T22:12:05.057Z,149963.13
2022-09-14T22:17:09.838Z,149956.63
2022-09-14T22:22:15.928Z,149954.06
2022-09-14T22:27:20.372Z,149977.31
2022-09-14T22:32:24.919Z,149988.94
2022-09-14T22:37:30.480Z,150014.78
2022-09-14T22:42:35.315Z,150005.72
2022-09-14T22:47:39.561Z,150034.19
2022-09-14T22:52:45.001Z,150005.72
2022-09-14T22:57:49.998Z,150001.88
2022-09-14T23:02:54.826Z,149998.00
2022-09-14T23:08:01.514Z,149991.53
2022-09-14T23:13:06.238Z,150027.75
2022-09-14T23:18:11.248Z,149965.69
2022-09-14T23:23:17.624Z,149868.75
2022-09-14T23:28:21.832Z,149867.47
2022-09-14T23:33:26.784Z,149881.66
2022-09-14T23:38:35.649Z,149921.75
2022-09-14T23:43:40.099Z,149910.13
2022-09-14T23:48:45.201Z,149933.38
2022-09-14T23:53:51.324Z,149943.72
2022-09-14T23:58:55.628Z,149974.75
